Terminal Aerodrome Forecast
Issued by NWS Wilmington, OH

Current Version | Previous Version | Text Only | Print | Product List | Glossary Off
Versions: 1 2 3 4 5 6 7 8 9 10 11 12 13 14 15 16 17 18 19 20 21 22 23

000
FTUS41 KILN 191100
TAFDAY
TAF
KDAY 191134Z 1912/2012 VRB03KT 4SM BR FEW040
     FM191400 23006KT P6SM SCT040
     FM191700 23010KT P6SM BKN040
     FM200000 22007KT P6SM VCTS BKN040CB
     FM200600 22005KT P6SM SCT040=

USA.gov is the U.S. government's official web portal to all federal, state and local government web resources and services.